Time;durP1;ratioP1;P1;durP2;ratioP2;P2;SDS_P1;SDS_P2;PMS_P1;PMS_P2;Temp;Humidity;BMP_temperature;BMP_pressure;BME280_temperature;BME280_humidity;BME280_pressure;Samples;Min_cycle;Max_cycle;Signal;HPM_P1;HPM_P2
2022/03/24 00:04:22;;;;;;;3.85;1.90;;;3.40;63.00;;;;;;20905776;28;20110;-47
2022/03/24 00:14:25;;;;;;;4.90;2.17;;;3.40;64.10;;;;;;20904747;28;20033;-55
2022/03/24 00:24:57;;;;;;;4.35;2.00;;;3.40;64.30;;;;;;20887338;28;20041;-51
2022/03/24 00:34:59;;;;;;;;;;;3.30;65.80;;;;;;20904032;28;20578;-48
2022/03/24 00:45:12;;;;;;;5.32;2.30;;;3.20;67.30;;;;;;20901694;28;19920;-46
2022/03/24 00:55:18;;;;;;;5.85;2.67;;;3.30;67.00;;;;;;20901919;28;20029;-47
2022/03/24 01:05:28;;;;;;;4.60;2.70;;;3.00;67.50;;;;;;20901066;28;20613;-46
2022/03/24 01:15:31;;;;;;;5.57;3.03;;;3.10;68.80;;;;;;20900499;28;20095;-46
2022/03/24 01:25:34;;;;;;;5.60;3.30;;;3.00;70.80;;;;;;20899961;28;20102;-46
2022/03/24 01:35:37;;;;;;;7.38;3.40;;;2.70;71.80;;;;;;20899171;28;20075;-48
2022/03/24 01:45:39;;;;;;;6.70;3.63;;;2.60;72.20;;;;;;20808699;28;20505;-51
2022/03/24 01:55:42;;;;;;;7.28;3.95;;;2.70;72.30;;;;;;20791560;28;20115;-47
2022/03/24 02:05:45;;;;;;;6.90;3.97;;;2.70;72.60;;;;;;20790901;28;20119;-52
2022/03/24 02:15:49;;;;;;;6.75;3.80;;;2.90;73.60;;;;;;20806988;28;20111;-51
2022/03/24 02:25:55;;;;;;;7.72;3.75;;;2.80;73.50;;;;;;20837622;28;20090;-47
2022/03/24 02:36:00;;;;;;;5.90;3.60;;;2.70;73.30;;;;;;20912678;28;20483;-48
2022/03/24 02:46:03;;;;;;;10.63;3.90;;;2.70;73.10;;;;;;20911741;28;20041;-47
2022/03/24 02:56:05;;;;;;;8.52;4.45;;;2.70;73.40;;;;;;20910963;28;20033;-49
2022/03/24 03:06:08;;;;;;;10.27;3.90;;;2.60;75.10;;;;;;20910475;28;20033;-47
2022/03/24 03:16:10;;;;;;;6.57;3.97;;;2.60;75.00;;;;;;20909689;28;20041;-47
2022/03/24 03:26:18;;;;;;;9.15;4.35;;;2.40;76.00;;;;;;20909907;28;20071;-46
2022/03/24 03:36:22;;;;;;;6.90;3.78;;;2.40;76.50;;;;;;20907768;28;20454;-46
2022/03/24 03:46:25;;;;;;;7.40;3.95;;;2.30;77.20;;;;;;20907241;28;20090;-49
2022/03/24 03:56:28;;;;;;;7.43;3.67;;;2.40;76.30;;;;;;20890175;28;20037;-52
2022/03/24 04:06:30;;;;;;;12.30;4.53;;;2.40;77.60;;;;;;20905801;28;20063;-46
2022/03/24 04:16:33;;;;;;;7.95;4.28;;;2.20;78.40;;;;;;20904675;28;20403;-47
2022/03/24 04:26:36;;;;;;;7.63;3.65;;;2.30;78.00;;;;;;20904083;28;20110;-46
2022/03/24 04:36:39;;;;;;;7.70;4.05;;;2.40;77.50;;;;;;20903131;28;20106;-47
2022/03/24 04:46:41;;;;;;;5.60;3.13;;;2.30;77.50;;;;;;20902386;28;20037;-47
2022/03/24 04:56:44;;;;;;;7.18;3.95;;;2.20;77.80;;;;;;20901805;28;20037;-48
2022/03/24 05:06:47;;;;;;;7.88;3.50;;;2.10;77.70;;;;;;20900796;28;20041;-50
2022/03/24 05:16:50;;;;;;;8.15;3.75;;;2.10;77.70;;;;;;20900442;28;20099;-48
2022/03/24 05:26:53;;;;;;;11.52;4.10;;;2.20;77.80;;;;;;20899889;28;20106;-49
2022/03/24 05:36:56;;;;;;;8.13;3.50;;;2.20;78.10;;;;;;20898625;28;20041;-47
2022/03/24 05:46:58;;;;;;;7.88;3.83;;;2.40;77.40;;;;;;20899181;28;20083;-48
2022/03/24 05:57:02;;;;;;;9.93;3.78;;;2.60;77.40;;;;;;20898799;28;20106;-46
2022/03/24 06:07:07;;;;;;;9.57;3.78;;;2.50;78.00;;;;;;20881795;28;20041;-47
2022/03/24 06:17:10;;;;;;;8.10;3.75;;;2.60;77.50;;;;;;20897848;28;20033;-46
2022/03/24 06:27:16;;;;;;;8.63;3.40;;;2.80;76.70;;;;;;20878798;28;20565;-47
2022/03/24 06:37:19;;;;;;;7.88;4.20;;;2.90;76.90;;;;;;20896700;28;20492;-47
2022/03/24 06:47:22;;;;;;;8.90;3.70;;;3.00;76.40;;;;;;20903971;28;20474;-51
2022/03/24 06:57:24;;;;;;;6.00;3.67;;;3.50;75.30;;;;;;20911385;28;20041;-49
2022/03/24 07:07:27;;;;;;;5.85;3.42;;;4.10;74.30;;;;;;20893810;28;20033;-49
2022/03/24 07:17:29;;;;;;;7.32;3.67;;;5.10;72.10;;;;;;20909640;28;20099;-48
2022/03/24 07:27:34;;;;;;;6.53;3.45;;;6.40;71.30;;;;;;20908909;28;20450;-46
2022/03/24 07:37:36;;;;;;;7.43;3.30;;;7.90;66.60;;;;;;20908573;28;20585;-50
2022/03/24 07:48:10;;;;;;;3.97;2.75;;;9.10;62.10;;;;;;20907209;28;20082;-51
2022/03/24 07:58:16;;;;;;;5.68;2.65;;;10.70;57.20;;;;;;20886719;28;20111;-51
2022/03/24 08:08:20;;;;;;;6.20;2.70;;;11.90;55.30;;;;;;20905915;28;20044;-53
2022/03/24 08:18:22;;;;;;;4.78;2.50;;;12.90;54.20;;;;;;20732170;28;20504;-53
2022/03/24 08:28:25;;;;;;;3.30;2.28;;;13.60;53.60;;;;;;20715120;28;20046;-49
2022/03/24 08:38:28;;;;;;;3.40;1.90;;;14.30;52.10;;;;;;20714282;28;20096;-49
2022/03/24 08:48:30;;;;;;;2.95;1.75;;;14.50;52.00;;;;;;20739865;28;20037;-52
2022/03/24 08:58:33;;;;;;;2.65;1.33;;;15.20;50.10;;;;;;20901717;28;20045;-52
2022/03/24 09:08:35;;;;;;;7.00;1.52;;;15.50;48.30;;;;;;20900522;28;20037;-55
2022/03/24 09:18:38;;;;;;;2.80;0.93;;;15.70;47.40;;;;;;20900450;28;20109;-50
2022/03/24 09:28:41;;;;;;;1.70;0.80;;;16.10;46.80;;;;;;20899998;28;20033;-56
2022/03/24 09:38:44;;;;;;;1.15;0.73;;;16.40;42.20;;;;;;20899311;28;20935;-55
2022/03/24 09:48:51;;;;;;;1.95;1.20;;;16.60;44.20;;;;;;20898958;28;20053;-53
2022/03/24 09:58:56;;;;;;;4.15;1.30;;;17.40;44.40;;;;;;20864471;28;20033;-56
2022/03/24 10:08:59;;;;;;;1.60;1.10;;;17.60;43.30;;;;;;20897871;28;20067;-53
2022/03/24 10:19:07;;;;;;;2.33;1.23;;;17.60;43.50;;;;;;20901254;28;20033;-57
2022/03/24 10:29:13;;;;;;;2.40;1.42;;;17.90;42.80;;;;;;20913892;28;20102;-57
2022/03/24 10:39:24;;;;;;;5.60;2.42;;;17.70;44.80;;;;;;20912671;28;20053;-56
2022/03/24 10:49:27;;;;;;;3.00;1.60;;;17.70;43.00;;;;;;20911749;28;20045;-57
2022/03/24 10:59:35;;;;;;;2.80;1.88;;;17.70;44.00;;;;;;20911063;28;20036;-57
2022/03/24 11:09:37;;;;;;;4.13;2.28;;;17.80;45.60;;;;;;20893857;28;20376;-57
2022/03/24 11:19:45;;;;;;;3.72;2.10;;;18.00;45.20;;;;;;20908023;28;20041;-57
2022/03/24 11:29:54;;;;;;;4.18;2.40;;;18.20;43.90;;;;;;20907012;28;20091;-56
2022/03/24 11:40:09;;;;;;;3.63;2.65;;;18.00;44.70;;;;;;20907831;28;20045;-53
2022/03/24 11:50:12;;;;;;;4.75;2.33;;;18.10;45.10;;;;;;20907254;28;20480;-56
2022/03/24 12:00:15;;;;;;;3.80;2.80;;;18.10;44.50;;;;;;20906379;28;20033;-54
2022/03/24 12:10:30;;;;;;;5.15;3.33;;;18.10;45.30;;;;;;20905685;28;20045;-55
2022/03/24 12:20:41;;;;;;;9.77;4.15;;;18.20;46.40;;;;;;20905097;28;20095;-56
2022/03/24 12:30:49;;;;;;;7.00;3.30;;;18.10;45.20;;;;;;20893105;28;20059;-56
2022/03/24 12:41:08;;;;;;;8.48;4.25;;;18.50;45.70;;;;;;20902311;28;20114;-55
2022/03/24 12:51:29;;;;;;;5.40;3.33;;;18.60;46.20;;;;;;20902826;28;20399;-54
2022/03/24 13:01:33;;;;;;;4.80;3.08;;;18.20;45.90;;;;;;20896069;28;20106;-55
2022/03/24 13:12:00;;;;;;;5.18;2.85;;;18.00;45.80;;;;;;20897805;28;20612;-56
2022/03/24 13:22:28;;;;;;;4.75;2.85;;;17.90;45.80;;;;;;20895087;28;20044;-56
2022/03/24 13:32:32;;;;;;;3.33;2.20;;;17.90;44.40;;;;;;20899413;28;20033;-56
2022/03/24 13:42:36;;;;;;;6.18;2.80;;;18.10;45.80;;;;;;20882894;28;20146;-56
2022/03/24 13:52:45;;;;;;;3.13;2.03;;;17.70;43.60;;;;;;20891618;28;20032;-53
2022/03/24 14:02:58;;;;;;;2.90;2.23;;;17.70;41.60;;;;;;20865242;28;20492;-50
2022/03/24 14:13:01;;;;;;;3.40;2.28;;;17.30;43.00;;;;;;20877208;28;20428;-54
2022/03/24 14:23:04;;;;;;;8.63;2.85;;;16.80;42.80;;;;;;20918197;28;20545;-50
2022/03/24 14:33:19;;;;;;;4.97;2.75;;;16.50;43.00;;;;;;20917606;28;20115;-55
2022/03/24 14:43:24;;;;;;;9.80;4.50;;;16.00;43.10;;;;;;20916984;28;20326;-52
2022/03/24 14:53:27;;;;;;;11.48;5.97;;;15.30;44.90;;;;;;20917481;28;20041;-50
2022/03/24 15:03:30;;;;;;;11.18;6.10;;;14.60;46.90;;;;;;20869276;28;20029;-52
2022/03/24 15:13:33;;;;;;;11.13;6.43;;;13.90;48.40;;;;;;20879603;28;20064;-50
2022/03/24 15:23:38;;;;;;;11.75;6.63;;;13.40;48.70;;;;;;20893385;28;20095;-53
2022/03/24 15:33:41;;;;;;;11.63;6.63;;;12.90;49.50;;;;;;20846784;28;20050;-51
2022/03/24 15:43:45;;;;;;;12.90;7.13;;;12.40;50.70;;;;;;20829728;28;20041;-52
2022/03/24 15:53:47;;;;;;;17.63;8.27;;;11.80;52.10;;;;;;20901983;28;20553;-50
2022/03/24 16:03:53;;;;;;;13.23;6.85;;;11.30;53.50;;;;;;20909518;28;20487;-49
2022/03/24 16:13:56;;;;;;;13.15;5.97;;;10.30;54.70;;;;;;20886908;28;20369;-51
2022/03/24 16:23:58;;;;;;;9.63;5.45;;;9.30;55.80;;;;;;20869913;28;20102;-48
2022/03/24 16:34:01;;;;;;;10.45;5.80;;;8.60;57.20;;;;;;20896760;28;20091;-48
2022/03/24 16:44:05;;;;;;;10.68;6.03;;;7.90;60.50;;;;;;20903782;28;20032;-53
2022/03/24 16:54:08;;;;;;;10.23;4.85;;;7.30;61.90;;;;;;20905813;28;20036;-50
2022/03/24 17:04:10;;;;;;;12.23;5.82;;;6.70;62.30;;;;;;20868359;28;20029;-50
2022/03/24 17:14:13;;;;;;;8.15;4.30;;;6.40;64.80;;;;;;20895248;28;20091;-47
2022/03/24 17:24:15;;;;;;;6.60;3.30;;;6.10;64.00;;;;;;20904161;28;20051;-48
2022/03/24 17:34:19;;;;;;;6.32;3.70;;;5.80;62.50;;;;;;20876264;28;20049;-49
2022/03/24 17:44:23;;;;;;;5.28;2.88;;;5.60;60.20;;;;;;20822274;28;20556;-46
2022/03/24 17:54:28;;;;;;;5.82;2.65;;;5.30;60.40;;;;;;20820375;28;20037;-46
2022/03/24 18:04:31;;;;;;;5.55;2.53;;;5.00;60.20;;;;;;20877684;28;20032;-47
2022/03/24 18:14:33;;;;;;;4.72;2.30;;;4.90;59.70;;;;;;20897067;28;20033;-47
2022/03/24 18:24:36;;;;;;;3.92;1.90;;;4.60;60.30;;;;;;20895802;28;20041;-58
2022/03/24 18:34:39;;;;;;;2.97;1.23;;;4.60;59.60;;;;;;20884929;28;20512;-58
2022/03/24 18:44:42;;;;;;;2.75;1.20;;;4.50;57.60;;;;;;20907181;28;20098;-58
2022/03/24 18:54:46;;;;;;;1.45;0.85;;;4.50;56.00;;;;;;20911988;28;20037;-58
2022/03/24 19:04:48;;;;;;;1.85;0.85;;;4.50;54.60;;;;;;20910586;28;20037;-58
2022/03/24 19:14:52;;;;;;;2.42;0.85;;;4.40;54.70;;;;;;20909933;28;20105;-58
2022/03/24 19:24:54;;;;;;;3.10;1.00;;;4.20;54.00;;;;;;20889052;28;20475;-58
2022/03/24 19:34:57;;;;;;;2.22;1.20;;;4.20;55.70;;;;;;20908330;28;20107;-58
2022/03/24 19:45:00;;;;;;;2.33;1.05;;;4.20;56.10;;;;;;20907421;28;20029;-58
2022/03/24 19:55:03;;;;;;;2.40;0.95;;;4.00;55.50;;;;;;20906466;28;20099;-58
2022/03/24 20:05:08;;;;;;;2.42;0.70;;;4.00;53.90;;;;;;20905846;28;20037;-58
2022/03/24 20:15:12;;;;;;;0.57;0.20;;;3.80;53.30;;;;;;20904722;28;20514;-59
2022/03/24 20:25:15;;;;;;;0.65;0.30;;;3.50;54.10;;;;;;20882683;28;20083;-59
2022/03/24 20:35:17;;;;;;;0.30;0.10;;;3.60;53.10;;;;;;20903270;28;20111;-59
2022/03/24 20:45:21;;;;;;;0.30;0.10;;;3.40;52.50;;;;;;20903809;28;20041;-58
2022/03/24 20:55:24;;;;;;;0.28;0.10;;;3.30;54.80;;;;;;20901405;28;20408;-59
2022/03/24 21:05:28;;;;;;;0.20;0.00;;;3.20;55.20;;;;;;20900570;28;20090;-59
2022/03/24 21:15:34;;;;;;;0.88;0.20;;;2.90;54.20;;;;;;20900817;28;20503;-57
2022/03/24 21:25:37;;;;;;;0.85;0.10;;;3.00;54.40;;;;;;20899841;28;20041;-60
2022/03/24 21:35:40;;;;;;;1.50;0.10;;;2.90;53.50;;;;;;20899753;28;20053;-60
2022/03/24 21:45:43;;;;;;;0.80;0.10;;;3.00;53.40;;;;;;20808166;28;20049;-59
2022/03/24 21:55:46;;;;;;;0.28;0.08;;;2.90;53.00;;;;;;20792026;28;20041;-59
2022/03/24 22:05:48;;;;;;;0.95;0.30;;;2.90;53.00;;;;;;20790935;28;20053;-60
2022/03/24 22:15:51;;;;;;;0.45;0.08;;;3.00;52.40;;;;;;20806988;28;20041;-63
2022/03/24 22:25:55;;;;;;;0.70;0.10;;;2.90;51.40;;;;;;20913497;28;20092;-66
2022/03/24 22:35:58;;;;;;;0.43;0.10;;;3.20;50.30;;;;;;19813449;28;10000934;-63
2022/03/24 22:46:04;;;;;;;0.30;0.00;;;3.20;51.40;;;;;;20682691;28;20065;-62
2022/03/24 22:56:07;;;;;;;0.10;0.00;;;3.30;51.70;;;;;;20678847;28;20047;-49
2022/03/24 23:06:11;;;;;;;0.63;0.10;;;3.20;51.60;;;;;;20679572;28;20042;-44
2022/03/24 23:16:14;;;;;;;0.55;0.10;;;3.10;50.60;;;;;;20681251;28;20564;-46
2022/03/24 23:26:17;;;;;;;0.40;0.00;;;3.00;51.80;;;;;;20662930;28;20073;-45
2022/03/24 23:36:19;;;;;;;0.70;0.15;;;2.80;49.90;;;;;;20679155;28;20419;-46
2022/03/24 23:46:22;;;;;;;0.47;0.10;;;2.80;49.30;;;;;;20646292;28;20042;-48
2022/03/24 23:56:25;;;;;;;0.45;0.20;;;2.60;52.20;;;;;;20661819;28;20037;-47
